createdAt,value
2022-10-13T00:00:59.801Z,65.18
2022-10-13T00:03:26.895Z,81.15
2022-10-13T00:05:54.239Z,78.72
2022-10-13T00:08:22.624Z,84.70
2022-10-13T00:10:50.906Z,87.70
2022-10-13T00:13:22.742Z,90.15
2022-10-13T00:15:49.705Z,86.50
2022-10-13T00:18:16.989Z,88.72
2022-10-13T00:20:49.621Z,85.35
2022-10-13T00:23:17.704Z,94.30
2022-10-13T00:25:49.487Z,81.40
2022-10-13T00:28:18.400Z,81.15
2022-10-13T00:30:46.825Z,83.40
2022-10-13T00:33:14.842Z,82.00
2022-10-13T00:35:47.361Z,81.73
2022-10-13T00:38:16.676Z,77.30
2022-10-13T00:40:47.445Z,77.93
2022-10-13T00:43:23.503Z,76.15
2022-10-13T00:45:51.615Z,77.20
2022-10-13T00:48:26.798Z,82.60
2022-10-13T00:50:54.099Z,76.20
2022-10-13T00:53:24.037Z,79.37
2022-10-13T00:55:52.671Z,79.17
2022-10-13T00:58:23.373Z,87.33
2022-10-13T01:00:52.104Z,75.07
2022-10-13T01:03:20.730Z,80.77
2022-10-13T01:05:50.070Z,77.23
2022-10-13T01:08:19.114Z,77.03
2022-10-13T01:11:04.622Z,85.33
2022-10-13T01:14:00.943Z,86.83
2022-10-13T01:16:30.810Z,82.37
2022-10-13T01:19:39.205Z,85.53
2022-10-13T01:22:15.221Z,86.83
2022-10-13T01:24:48.002Z,88.53
2022-10-13T01:27:24.369Z,86.63
2022-10-13T01:30:20.603Z,87.60
2022-10-13T01:33:06.419Z,91.47
2022-10-13T01:35:41.145Z,89.40
2022-10-13T01:38:24.356Z,88.27
2022-10-13T01:41:29.106Z,97.13
2022-10-13T01:44:06.017Z,87.20
2022-10-13T01:46:38.089Z,81.40
2022-10-13T01:49:11.072Z,77.07
2022-10-13T01:51:39.513Z,85.43
2022-10-13T01:54:06.838Z,84.57
2022-10-13T01:56:33.808Z,87.50
2022-10-13T01:59:04.870Z,85.93
2022-10-13T02:01:52.895Z,91.80
2022-10-13T02:04:48.831Z,84.93
2022-10-13T02:07:42.635Z,89.97
2022-10-13T02:10:21.457Z,85.97
2022-10-13T02:13:02.504Z,84.43
2022-10-13T02:15:35.520Z,82.80
2022-10-13T02:18:06.214Z,88.00
2022-10-13T02:20:33.786Z,83.17
2022-10-13T02:23:10.091Z,88.40
2022-10-13T02:25:37.670Z,83.53
2022-10-13T02:28:05.505Z,95.63
2022-10-13T02:30:36.012Z,107.77
2022-10-13T02:33:03.553Z,98.40
2022-10-13T02:35:31.069Z,101.77
2022-10-13T02:38:02.373Z,102.30
2022-10-13T02:40:29.657Z,106.87
2022-10-13T02:42:56.653Z,103.50
2022-10-13T02:45:24.117Z,111.80
2022-10-13T02:47:55.135Z,109.27
2022-10-13T02:50:22.185Z,104.53
2022-10-13T02:52:50.676Z,102.33
2022-10-13T02:55:17.876Z,111.07
2022-10-13T02:57:46.140Z,109.73
2022-10-13T03:00:14.077Z,113.10
2022-10-13T03:02:41.070Z,121.93
2022-10-13T03:05:08.680Z,120.43
2022-10-13T03:07:35.631Z,120.07
2022-10-13T03:10:02.631Z,132.53
2022-10-13T03:12:29.717Z,129.23
2022-10-13T03:14:56.756Z,119.17
2022-10-13T03:17:23.778Z,127.87
2022-10-13T03:19:50.812Z,117.03
2022-10-13T03:22:19.049Z,125.27
2022-10-13T03:24:46.337Z,124.30
2022-10-13T03:27:13.815Z,134.10
2022-10-13T03:29:41.348Z,127.33
2022-10-13T03:32:08.344Z,128.53
2022-10-13T03:34:35.297Z,169.53
2022-10-13T03:37:02.466Z,157.57
2022-10-13T03:39:34.759Z,124.83
2022-10-13T03:42:01.980Z,146.00
2022-10-13T03:44:28.868Z,230.27
2022-10-13T03:46:55.706Z,194.43
2022-10-13T03:49:22.625Z,133.63
2022-10-13T03:51:49.601Z,116.27
2022-10-13T03:54:16.584Z,129.77
2022-10-13T03:56:46.796Z,132.73
2022-10-13T03:59:16.891Z,179.33
2022-10-13T04:01:43.881Z,159.37
2022-10-13T04:04:12.626Z,150.23
2022-10-13T04:06:42.328Z,107.17
2022-10-13T04:09:09.794Z,108.17
2022-10-13T04:11:36.893Z,188.80
2022-10-13T04:14:04.058Z,121.10
2022-10-13T04:16:32.314Z,99.47
2022-10-13T04:19:02.357Z,200.63
2022-10-13T04:21:31.530Z,111.57
2022-10-13T04:24:00.072Z,128.17
2022-10-13T04:26:28.969Z,145.37
2022-10-13T04:28:57.775Z,101.43
2022-10-13T04:31:25.640Z,89.00
2022-10-13T04:33:53.595Z,91.83
2022-10-13T04:36:21.169Z,84.20
2022-10-13T04:38:50.502Z,86.57
2022-10-13T04:41:18.541Z,80.83
2022-10-13T04:43:48.587Z,78.43
2022-10-13T04:46:19.426Z,83.10
2022-10-13T04:48:49.004Z,86.57
2022-10-13T04:51:18.642Z,75.83
2022-10-13T04:53:46.315Z,76.77
2022-10-13T04:56:16.622Z,149.83
2022-10-13T04:58:45.415Z,160.97
2022-10-13T05:01:21.214Z,80.57
2022-10-13T05:03:51.693Z,76.27
2022-10-13T05:06:22.053Z,76.90
2022-10-13T05:08:49.999Z,76.80
2022-10-13T05:11:18.466Z,123.13
2022-10-13T05:13:47.039Z,93.73
2022-10-13T05:16:16.303Z,100.07
2022-10-13T05:18:43.793Z,164.43
2022-10-13T05:21:14.117Z,75.03
2022-10-13T05:23:41.987Z,77.23
2022-10-13T05:26:11.496Z,76.80
2022-10-13T05:28:38.597Z,78.97
2022-10-13T05:31:20.136Z,71.47
2022-10-13T05:33:48.319Z,71.90
2022-10-13T05:36:35.178Z,85.17
2022-10-13T05:39:04.824Z,97.40
2022-10-13T05:41:32.374Z,72.00
2022-10-13T05:44:06.518Z,106.43
2022-10-13T05:46:33.853Z,80.87
2022-10-13T05:49:00.808Z,77.83
2022-10-13T05:51:34.548Z,83.50
2022-10-13T05:54:13.038Z,83.47
2022-10-13T05:56:44.736Z,83.40
2022-10-13T05:59:15.200Z,82.57
2022-10-13T06:01:47.624Z,83.00
2022-10-13T06:04:23.675Z,91.83
2022-10-13T06:06:50.994Z,76.33
2022-10-13T06:09:18.289Z,79.17
2022-10-13T06:11:45.335Z,86.30
2022-10-13T06:14:12.239Z,104.00
2022-10-13T06:16:39.482Z,104.70
2022-10-13T06:19:06.643Z,86.73
2022-10-13T06:21:36.405Z,84.53
2022-10-13T06:24:03.621Z,95.90
2022-10-13T06:26:30.695Z,78.30
2022-10-13T06:28:59.762Z,82.47
2022-10-13T06:31:27.741Z,117.07
2022-10-13T06:33:55.166Z,89.63
2022-10-13T06:36:22.476Z,83.87
2022-10-13T06:38:49.558Z,83.47
2022-10-13T06:41:18.938Z,93.47
2022-10-13T06:43:46.023Z,69.23
2022-10-13T06:46:13.195Z,78.93
2022-10-13T06:48:40.220Z,72.63
2022-10-13T06:51:12.286Z,81.03
2022-10-13T06:53:39.442Z,84.43
2022-10-13T06:56:08.490Z,78.03
2022-10-13T06:58:36.916Z,74.93
2022-10-13T07:01:04.626Z,76.50
2022-10-13T07:03:32.184Z,74.23
2022-10-13T07:06:03.851Z,73.47
2022-10-13T07:08:31.631Z,70.78
2022-10-13T07:10:59.030Z,72.30
2022-10-13T07:13:26.100Z,75.10
2022-10-13T07:15:53.060Z,77.72
2022-10-13T07:18:20.285Z,69.60
2022-10-13T07:20:47.278Z,69.47
2022-10-13T07:23:14.252Z,73.03
2022-10-13T07:25:41.305Z,75.20
2022-10-13T07:28:08.955Z,71.07
2022-10-13T07:30:36.029Z,73.07
2022-10-13T07:33:03.170Z,67.20
2022-10-13T07:35:31.023Z,67.85
2022-10-13T07:37:58.487Z,73.13
2022-10-13T07:40:25.395Z,71.88
2022-10-13T07:42:52.349Z,76.43
2022-10-13T07:45:19.211Z,71.32
2022-10-13T13:24:41.366Z,16.75
2022-10-13T13:27:25.545Z,20.95
2022-10-13T13:29:54.648Z,16.13
2022-10-13T13:32:23.824Z,16.10
2022-10-13T13:34:51.063Z,19.85
2022-10-13T13:37:34.091Z,16.63
2022-10-13T13:40:01.436Z,13.70
2022-10-13T13:42:29.020Z,13.57
2022-10-13T13:44:56.399Z,15.35
2022-10-13T13:47:28.696Z,16.45
2022-10-13T13:49:57.436Z,15.15
2022-10-13T13:52:25.604Z,19.65
2022-10-13T13:54:52.892Z,14.55
2022-10-13T13:57:20.752Z,17.75
2022-10-13T13:59:48.001Z,14.85
2022-10-13T14:02:21.729Z,17.83
2022-10-13T14:04:48.692Z,20.38
2022-10-13T14:07:17.199Z,18.67
2022-10-13T14:09:46.317Z,23.33
2022-10-13T14:12:13.573Z,15.50
2022-10-13T14:14:40.630Z,13.57
2022-10-13T14:17:09.719Z,15.55
2022-10-13T14:19:36.584Z,23.05
2022-10-13T14:22:08.486Z,18.58
2022-10-13T14:24:36.293Z,16.35
2022-10-13T14:27:04.649Z,15.63
2022-10-13T14:29:31.549Z,16.42
2022-10-13T14:31:58.432Z,16.77
2022-10-13T14:34:25.427Z,16.23
2022-10-13T14:36:52.312Z,16.52
2022-10-13T14:43:53.410Z,15.40
2022-10-13T14:46:20.728Z,18.55
2022-10-13T14:48:48.021Z,15.50
2022-10-13T14:52:57.523Z,13.40
2022-10-13T14:55:25.238Z,16.45
2022-10-13T14:57:52.203Z,14.40
2022-10-13T15:00:19.506Z,18.60
2022-10-13T15:02:46.406Z,15.45
2022-10-13T15:05:13.495Z,18.40
2022-10-13T15:07:41.400Z,16.33
2022-10-13T15:10:08.883Z,16.67
2022-10-13T15:12:35.729Z,17.67
2022-10-13T15:15:02.980Z,15.00
2022-10-13T15:17:31.027Z,20.75
2022-10-13T15:19:57.973Z,17.33
2022-10-13T15:22:25.547Z,19.00
2022-10-13T15:24:52.788Z,25.25
2022-10-13T15:27:19.735Z,18.38
2022-10-13T15:29:46.750Z,15.48
2022-10-13T15:32:20.429Z,18.92
2022-10-13T15:34:54.789Z,22.00
2022-10-13T15:37:21.671Z,15.55
2022-10-13T15:39:51.958Z,20.58
2022-10-13T15:42:21.662Z,19.67
2022-10-13T15:47:36.431Z,18.65
2022-10-13T15:50:03.883Z,19.25
2022-10-13T15:52:34.640Z,21.45
2022-10-13T15:55:02.190Z,22.17
2022-10-13T15:57:31.032Z,19.65
2022-10-13T15:59:58.095Z,22.45
2022-10-13T16:02:25.084Z,21.85
2022-10-13T16:04:52.088Z,19.38
2022-10-13T16:07:19.056Z,18.92
2022-10-13T16:09:46.072Z,25.23
2022-10-13T16:12:13.181Z,22.17
2022-10-13T16:14:40.107Z,24.02
2022-10-13T16:17:07.171Z,22.60
2022-10-13T16:19:37.456Z,27.00
2022-10-13T16:22:07.894Z,20.77
2022-10-13T16:24:35.100Z,27.20
2022-10-13T16:27:02.610Z,20.63
2022-10-13T16:29:29.953Z,23.33
2022-10-13T16:31:56.881Z,24.90
2022-10-13T16:34:24.047Z,24.63
2022-10-13T16:36:51.165Z,25.52
2022-10-13T16:39:18.225Z,25.75
2022-10-13T16:41:45.244Z,28.40
2022-10-13T16:44:12.522Z,24.65
2022-10-13T16:46:40.252Z,26.30
2022-10-13T16:49:07.787Z,21.10
2022-10-13T16:51:34.722Z,24.42
2022-10-13T16:54:04.437Z,22.40
2022-10-13T16:56:31.965Z,27.80
2022-10-13T16:59:01.684Z,26.27
2022-10-13T17:01:29.380Z,28.10
2022-10-13T17:03:57.082Z,24.65
2022-10-13T17:06:26.418Z,28.95
2022-10-13T17:08:56.556Z,30.83
2022-10-13T17:11:26.320Z,26.55
2022-10-13T17:13:53.623Z,26.52
2022-10-13T17:16:20.900Z,28.63
2022-10-13T17:18:48.147Z,32.08
2022-10-13T17:21:17.669Z,48.83
2022-10-13T17:23:48.654Z,35.70
2022-10-13T17:26:18.362Z,32.33
2022-10-13T17:28:45.855Z,29.85
2022-10-13T17:31:19.427Z,27.20
2022-10-13T17:33:47.745Z,31.92
2022-10-13T17:36:20.574Z,33.90
2022-10-13T17:38:49.242Z,32.58
2022-10-13T17:41:16.695Z,32.85
2022-10-13T17:43:51.823Z,34.90
2022-10-13T17:46:36.124Z,35.92
2022-10-13T17:49:04.126Z,37.85
2022-10-13T17:51:31.139Z,38.53
2022-10-13T17:53:59.681Z,35.58
2022-10-13T17:56:27.070Z,36.65
2022-10-13T17:58:54.384Z,36.17
2022-10-13T18:01:33.049Z,41.50
2022-10-13T18:04:04.808Z,36.50
2022-10-13T18:06:38.346Z,44.67
2022-10-13T18:09:08.483Z,43.83
2022-10-13T18:11:36.227Z,38.33
2022-10-13T18:14:03.834Z,40.38
2022-10-13T18:16:30.783Z,45.80
2022-10-13T18:18:57.793Z,47.58
2022-10-13T18:21:28.067Z,47.38
2022-10-13T18:23:56.615Z,46.97
2022-10-13T18:26:25.273Z,43.25
2022-10-13T18:28:52.717Z,42.70
2022-10-13T18:31:27.724Z,43.53
2022-10-13T18:34:02.563Z,44.05
2022-10-13T18:36:35.569Z,48.45
2022-10-13T18:39:15.736Z,47.75
2022-10-13T18:41:46.088Z,47.70
2022-10-13T18:44:13.360Z,46.72
2022-10-13T18:46:40.882Z,49.63
2022-10-13T18:49:11.409Z,49.92
2022-10-13T18:51:40.204Z,49.30
2022-10-13T18:54:07.387Z,50.88
2022-10-13T18:56:37.036Z,48.10
2022-10-13T18:59:05.865Z,48.33
2022-10-13T19:01:34.843Z,50.40
2022-10-13T19:04:02.320Z,55.15
2022-10-13T19:06:32.265Z,47.80
2022-10-13T19:09:05.030Z,53.38
2022-10-13T19:11:35.120Z,54.13
2022-10-13T19:14:03.527Z,62.28
2022-10-13T19:16:32.152Z,57.92
2022-10-13T19:18:59.094Z,53.92
2022-10-13T19:21:26.494Z,59.25
2022-10-13T19:23:53.657Z,55.85
2022-10-13T19:26:24.319Z,56.47
2022-10-13T19:28:56.454Z,51.72
2022-10-13T19:31:26.483Z,58.30
2022-10-13T19:33:55.232Z,60.05
2022-10-13T19:36:23.730Z,55.40
2022-10-13T19:38:52.540Z,49.47
2022-10-13T19:41:19.733Z,56.63
2022-10-13T19:43:46.843Z,58.03
2022-10-13T19:46:14.239Z,55.65
2022-10-13T19:48:41.362Z,55.53
2022-10-13T19:51:10.006Z,62.10
2022-10-13T19:53:38.549Z,58.92
2022-10-13T19:56:06.223Z,59.22
2022-10-13T19:58:33.813Z,55.42
2022-10-13T20:01:08.442Z,55.67
2022-10-13T20:03:35.629Z,64.43
2022-10-13T20:06:07.453Z,57.65
2022-10-13T20:08:38.473Z,55.97
2022-10-13T20:11:10.803Z,58.20
2022-10-13T20:13:37.945Z,61.08
2022-10-13T20:16:10.097Z,61.97
2022-10-13T20:18:37.319Z,55.75
2022-10-13T20:21:05.851Z,60.97
2022-10-13T20:23:32.989Z,58.58
2022-10-13T20:26:04.648Z,57.28
2022-10-13T20:28:40.479Z,61.03
2022-10-13T20:31:12.918Z,63.38
2022-10-13T20:33:41.400Z,60.17
2022-10-13T20:36:14.311Z,61.05
2022-10-13T20:38:42.000Z,67.63
2022-10-13T20:41:21.165Z,65.95
2022-10-13T20:43:49.703Z,63.95
2022-10-13T20:46:19.968Z,68.47
2022-10-13T20:51:35.553Z,72.13
2022-10-13T20:54:02.658Z,69.85
2022-10-13T20:56:29.876Z,78.65
2022-10-13T20:58:57.262Z,70.28
2022-10-13T21:01:24.218Z,72.70
2022-10-13T21:03:52.800Z,73.57
2022-10-13T21:06:20.276Z,74.35
2022-10-13T21:08:47.528Z,77.45
2022-10-13T21:11:16.883Z,68.10
2022-10-13T21:13:45.146Z,73.47
2022-10-13T21:16:17.882Z,75.80
2022-10-13T21:18:48.465Z,69.20
2022-10-13T21:21:19.168Z,70.25
2022-10-13T21:23:55.535Z,74.20
2022-10-13T21:26:24.719Z,73.80
2022-10-13T21:28:52.479Z,68.30
2022-10-13T21:31:21.903Z,66.75
2022-10-13T21:33:50.121Z,68.32
2022-10-13T21:36:23.069Z,73.03
2022-10-13T21:38:57.334Z,73.45
2022-10-13T21:41:25.197Z,73.35
2022-10-13T21:43:53.523Z,74.47
2022-10-13T21:46:26.950Z,71.78
2022-10-13T21:48:56.578Z,72.60
2022-10-13T21:51:29.979Z,67.68
2022-10-13T21:54:02.966Z,75.65
2022-10-13T21:56:31.356Z,75.78
2022-10-13T21:58:59.394Z,73.50
2022-10-13T22:01:26.848Z,75.40
2022-10-13T22:03:59.174Z,68.38
2022-10-13T22:06:27.414Z,65.25
2022-10-13T22:08:57.488Z,73.25
2022-10-13T22:11:28.442Z,75.75
2022-10-13T22:13:59.474Z,68.15
2022-10-13T22:16:38.911Z,68.25
2022-10-13T22:19:06.910Z,69.82
2022-10-13T22:21:38.606Z,65.90
2022-10-13T22:24:07.374Z,67.28
2022-10-13T22:26:36.842Z,73.68
2022-10-13T22:29:06.262Z,64.35
2022-10-13T22:31:34.071Z,67.30
2022-10-13T22:34:08.880Z,70.22
2022-10-13T22:36:38.044Z,77.68
2022-10-13T22:39:06.949Z,61.20
2022-10-13T22:41:35.122Z,70.78
2022-10-13T22:44:02.353Z,65.47
2022-10-13T22:46:32.632Z,63.00
2022-10-13T22:48:59.640Z,58.40
2022-10-13T22:51:28.587Z,75.15
2022-10-13T22:53:56.497Z,72.95
2022-10-13T22:56:26.156Z,64.25
2022-10-13T22:58:55.375Z,61.63
2022-10-13T23:01:22.689Z,70.07
2022-10-13T23:03:51.801Z,67.82
2022-10-13T23:06:22.620Z,67.72
2022-10-13T23:08:49.937Z,66.45
2022-10-13T23:11:18.064Z,65.90
2022-10-13T23:13:45.670Z,68.38
2022-10-13T23:16:24.647Z,63.88
2022-10-13T23:18:52.222Z,70.70
2022-10-13T23:21:27.487Z,68.65
2022-10-13T23:24:02.632Z,68.32
2022-10-13T23:26:30.642Z,77.13
2022-10-13T23:28:58.234Z,71.45
2022-10-13T23:31:27.113Z,74.10
2022-10-13T23:33:54.138Z,70.78
2022-10-13T23:36:24.663Z,72.78
2022-10-13T23:39:01.981Z,80.05
2022-10-13T23:41:29.141Z,76.05
2022-10-13T23:43:56.158Z,80.97
2022-10-13T23:46:23.235Z,92.50
2022-10-13T23:48:50.557Z,80.53
2022-10-13T23:51:20.565Z,83.88
2022-10-13T23:53:47.928Z,79.93
2022-10-13T23:56:15.266Z,77.95
2022-10-13T23:58:43.840Z,77.18
